メインページ
METAR-TAF:

METAR-TAF

空港 :

モントリオール・ピエール・エリオット・トルドー国際空港

モントリオール・トルドー, ケベック州, カナダ

緯度: 45-28N, 経度: 073-45W, 海抜: 31m

現時点の気象観測

当レポートは33分前の01:39(UTC)に作成
の風 6kt
気温 2°C
湿度 93%
気圧 1020 hPa
視程: 8.0km
高度600ftの千切れ雲あり
高度1200ftの千切れ雲あり
高度2000ftの曇り
小霧雨

METAR: CYUL 150139Z 18006KT 5SM -DZ BKN006 BKN012 OVC020 02/01 A3011 RMK SF5SC2SC1 SLP199

時間: 21:12 (02:12 UTC)

予報

当レポートは15分前の01:57(UTC)に作成
予報は15日の 01時(UTC)から 15日の 24時(UTC)まで有効
南/南東の風 7kt
視程: 4.8km
高度600ftの千切れ雲あり
高度1500ftの曇り
小雨, 靄
15日の 01時(UTC)から 15日の 10時(UTC)まで一時的に
視程: 9.7km
高度1500ftの曇り
小霧雨, 靄
15日の 1000時(UTC)から
西の風 12kt
視程: 10km
高度2000ftの千切れ雲あり
15日の 11時(UTC)から 15日の 13時(UTC)まで徐々に
高度2000ftの雲はほとんどない
15日の 1400時(UTC)から
西/南西の風 10kt
視程: 10km
晴天

TAF: CYUL 150157Z 1501/1524 16007KT 3SM -RA BR BKN006 OVC015 TEMPO 1501/1510 6SM -DZ BR OVC015 FM151000 26012KT P6SM BKN020 BECMG 1511/1513 FEW020 FM151400 24010KT P6SM SKC RMK NXT FCST BY 150300Z

4,000以上の空港の気象観測と天気予報(METAR報とTAF報)

利用可能な観測所は地図上に黄色い丸と赤い丸で示す。

丸の上にカーソルを重ねると観測所名を参照できる。

次にクリックすると気象観測と天気予報を参照できる。

マップの切り替え:黒色「×」印の緑ボタンをクリックして拡大、「-」印の緑ボタンをクリックして縮小、緑色の三角印をクリックして隣りの地図に切り替え


METAR-TAF: